createdAt,value
2019-04-26T00:02:18.760Z,2.30
2019-04-26T00:04:48.310Z,2.20
2019-04-26T00:07:18.782Z,2.00
2019-04-26T00:09:48.516Z,1.67
2019-04-26T00:12:26.263Z,1.60
2019-04-26T00:15:14.777Z,1.73
2019-04-26T00:17:58.368Z,1.70
2019-04-26T00:20:27.612Z,1.30
2019-04-26T00:22:56.889Z,1.70
2019-04-26T00:25:29.497Z,1.70
2019-04-26T00:27:58.620Z,1.53
2019-04-26T00:30:33.951Z,1.97
2019-04-26T00:33:03.173Z,1.90
2019-04-26T00:35:32.342Z,2.00
2019-04-26T00:38:02.661Z,1.80
2019-04-26T00:40:32.087Z,1.70
2019-04-26T00:43:02.958Z,1.53
2019-04-26T00:45:34.595Z,1.67
2019-04-26T00:48:04.405Z,1.83
2019-04-26T00:50:35.560Z,1.87
2019-04-26T00:53:05.053Z,1.60
2019-04-26T00:55:35.902Z,2.40
2019-04-26T00:58:06.016Z,1.93
2019-04-26T01:00:35.164Z,2.33
2019-04-26T01:03:04.365Z,2.03
2019-04-26T01:05:35.119Z,1.63
2019-04-26T01:08:04.225Z,1.80
2019-04-26T01:10:33.311Z,2.03
2019-04-26T01:13:02.426Z,1.50
2019-04-26T01:15:31.586Z,1.60
2019-04-26T01:18:00.695Z,1.63
2019-04-26T01:20:32.207Z,1.70
2019-04-26T01:23:04.808Z,1.87
2019-04-26T01:25:47.805Z,2.07
2019-04-26T01:28:25.829Z,1.60
2019-04-26T01:30:58.306Z,2.10
2019-04-26T01:33:28.653Z,1.80
2019-04-26T01:35:57.829Z,1.70
2019-04-26T01:38:27.707Z,1.60
2019-04-26T01:41:00.420Z,1.63
2019-04-26T01:43:48.457Z,2.37
2019-04-26T01:46:24.819Z,2.00
2019-04-26T01:49:00.113Z,1.30
2019-04-26T01:51:45.049Z,1.40
2019-04-26T01:54:17.417Z,1.47
2019-04-26T01:56:48.276Z,2.27
2019-04-26T01:59:19.256Z,1.93
2019-04-26T02:02:10.584Z,2.40
2019-04-26T02:04:42.808Z,1.80
2019-04-26T02:07:12.172Z,1.70
2019-04-26T02:09:41.251Z,1.53
2019-04-26T02:12:10.346Z,1.60
2019-04-26T02:14:40.089Z,2.20
2019-04-26T02:17:09.765Z,1.60
2019-04-26T02:19:38.800Z,2.00
2019-04-26T02:22:29.905Z,1.80
2019-04-26T02:24:59.095Z,1.87
2019-04-26T02:27:30.314Z,1.60
2019-04-26T02:30:00.727Z,2.57
2019-04-26T02:32:32.761Z,2.07
2019-04-26T02:35:02.567Z,1.90
2019-04-26T02:37:32.761Z,1.90
2019-04-26T02:40:04.143Z,1.57
2019-04-26T02:42:40.420Z,1.67
2019-04-26T02:45:47.571Z,2.03
2019-04-26T02:48:47.580Z,2.33
2019-04-26T02:51:21.295Z,2.03
2019-04-26T02:53:57.379Z,1.83
2019-04-26T02:56:54.805Z,2.00
2019-04-26T02:59:43.667Z,2.03
2019-04-26T03:02:24.161Z,2.20
2019-04-26T03:04:57.529Z,2.00
2019-04-26T03:07:49.492Z,2.47
2019-04-26T03:10:20.759Z,2.53
2019-04-26T03:12:52.539Z,2.27
2019-04-26T03:15:32.063Z,2.30
2019-04-26T03:18:29.414Z,2.40
2019-04-26T03:21:03.404Z,2.23
2019-04-26T03:23:57.129Z,2.20
2019-04-26T03:26:43.151Z,2.10
2019-04-26T03:29:24.745Z,2.53
2019-04-26T03:32:50.358Z,2.20
2019-04-26T03:35:48.502Z,2.20
2019-04-26T03:38:24.684Z,2.20
2019-04-26T03:41:17.883Z,2.33
2019-04-26T03:44:05.281Z,2.07
2019-04-26T03:46:41.850Z,2.50
2019-04-26T03:49:35.447Z,2.50
2019-04-26T03:52:51.870Z,2.60
2019-04-26T03:55:56.958Z,2.73
2019-04-26T03:58:36.597Z,2.83
2019-04-26T04:01:10.925Z,2.47
2019-04-26T04:03:55.237Z,2.47
2019-04-26T04:06:29.723Z,2.97
2019-04-26T04:09:05.056Z,2.50
2019-04-26T04:11:43.055Z,2.30
2019-04-26T04:14:41.998Z,2.20
2019-04-26T04:17:33.915Z,3.03
2019-04-26T04:20:56.462Z,2.37
2019-04-26T04:23:49.317Z,2.40
2019-04-26T04:26:23.761Z,2.30
2019-04-26T04:29:20.337Z,2.57
2019-04-26T04:31:54.088Z,2.60
2019-04-26T04:34:30.617Z,2.30
2019-04-26T04:37:03.182Z,2.50
2019-04-26T04:39:53.789Z,2.57
2019-04-26T04:42:45.903Z,2.47
2019-04-26T04:46:07.752Z,2.53
2019-04-26T04:49:23.485Z,2.37
2019-04-26T04:52:28.194Z,2.20
2019-04-26T04:55:09.417Z,2.40
2019-04-26T04:57:58.137Z,2.53
2019-04-26T05:00:57.362Z,2.90
2019-04-26T05:03:53.842Z,3.80
2019-04-26T05:06:51.865Z,2.90
2019-04-26T05:09:33.273Z,3.00
2019-04-26T05:12:20.419Z,2.80
2019-04-26T05:15:10.494Z,2.73
2019-04-26T05:17:56.961Z,2.60
2019-04-26T05:20:45.940Z,2.37
2019-04-26T05:23:36.766Z,2.40
2019-04-26T05:27:00.344Z,2.47
2019-04-26T05:30:25.749Z,2.33
2019-04-26T05:33:09.407Z,3.60
2019-04-26T05:36:04.752Z,2.47
2019-04-26T05:39:07.330Z,2.60
2019-04-26T05:42:31.224Z,2.50
2019-04-26T05:45:50.355Z,2.20
2019-04-26T05:48:53.573Z,2.20
2019-04-26T05:52:00.717Z,2.30
2019-04-26T05:55:10.156Z,2.20
2019-04-26T05:58:04.107Z,2.13
2019-04-26T06:01:15.504Z,2.30
2019-04-26T06:04:27.876Z,2.53
2019-04-26T06:07:40.824Z,2.10
2019-04-26T06:10:28.797Z,2.23
2019-04-26T06:13:37.557Z,1.97
2019-04-26T06:16:24.797Z,2.17
2019-04-26T06:19:29.866Z,2.60
2019-04-26T06:22:10.687Z,2.20
2019-04-26T06:25:14.278Z,2.20
2019-04-26T06:27:56.721Z,3.33
2019-04-26T06:30:49.128Z,2.80
2019-04-26T06:33:45.561Z,2.20
2019-04-26T06:36:23.329Z,2.60
2019-04-26T06:39:31.990Z,2.43
2019-04-26T06:42:49.020Z,2.30
2019-04-26T06:46:10.717Z,2.10
2019-04-26T06:49:22.893Z,2.57
2019-04-26T06:51:58.493Z,2.40
2019-04-26T06:54:35.877Z,2.20
2019-04-26T06:57:41.759Z,2.20
2019-04-26T07:00:20.272Z,2.30
2019-04-26T07:03:25.779Z,2.10
2019-04-26T07:06:00.382Z,2.20
2019-04-26T07:08:57.687Z,2.17
2019-04-26T07:12:09.073Z,2.37
2019-04-26T07:15:08.637Z,2.33
2019-04-26T07:17:51.210Z,2.70
2019-04-26T07:20:39.231Z,2.47
2019-04-26T07:24:03.674Z,2.00
2019-04-26T07:27:06.297Z,2.20
2019-04-26T07:30:15.397Z,2.30
2019-04-26T07:33:25.646Z,2.00
2019-04-26T07:36:19.359Z,2.27
2019-04-26T07:39:22.683Z,2.40
2019-04-26T07:42:46.565Z,2.77
2019-04-26T07:45:41.483Z,2.33
2019-04-26T07:48:54.817Z,2.03
2019-04-26T07:51:53.303Z,2.10
2019-04-26T07:55:03.685Z,2.30
2019-04-26T07:58:25.310Z,2.00
2019-04-26T08:01:05.894Z,2.93
2019-04-26T08:03:49.344Z,2.40
2019-04-26T08:06:24.414Z,2.63
2019-04-26T08:08:59.058Z,2.23
2019-04-26T08:11:41.130Z,1.90
2019-04-26T08:14:15.910Z,1.80
2019-04-26T08:17:27.863Z,2.00
2019-04-26T08:20:07.248Z,1.57
2019-04-26T08:22:38.928Z,2.10
2019-04-26T08:25:10.435Z,1.80
2019-04-26T08:27:41.138Z,2.10
2019-04-26T08:30:16.095Z,2.07
2019-04-26T08:32:52.299Z,2.23
2019-04-26T08:35:28.885Z,2.13
2019-04-26T08:38:08.037Z,2.10
2019-04-26T08:40:35.122Z,2.40
2019-04-26T08:43:30.583Z,1.80
2019-04-26T08:46:26.271Z,1.97
2019-04-26T08:49:19.166Z,1.93
2019-04-26T08:51:52.289Z,2.00
2019-04-26T08:54:25.297Z,2.00
2019-04-26T08:57:08.210Z,1.90
2019-04-26T08:59:41.895Z,2.10
2019-04-26T09:02:44.185Z,2.00
2019-04-26T09:05:34.397Z,1.93
2019-04-26T09:08:09.595Z,2.10
2019-04-26T09:10:43.302Z,1.90
2019-04-26T09:13:15.509Z,2.30
2019-04-26T09:16:12.210Z,2.03
2019-04-26T09:18:44.086Z,2.30
2019-04-26T09:21:13.227Z,2.00
2019-04-26T09:24:01.663Z,1.90
2019-04-26T09:26:42.365Z,2.10
2019-04-26T09:29:20.867Z,2.00
2019-04-26T09:31:54.499Z,2.30
2019-04-26T09:34:22.824Z,2.20
2019-04-26T09:36:53.196Z,2.17
2019-04-26T09:39:22.887Z,2.03
2019-04-26T09:41:53.699Z,2.50
2019-04-26T09:44:29.073Z,2.60
2019-04-26T09:47:25.108Z,2.60
2019-04-26T09:50:15.485Z,2.47
2019-04-26T09:52:50.629Z,2.50
2019-04-26T09:55:20.026Z,2.30
2019-04-26T09:57:49.106Z,2.27
2019-04-26T10:00:24.286Z,2.60
2019-04-26T10:02:53.464Z,2.50
2019-04-26T10:05:23.871Z,2.40
2019-04-26T10:07:53.052Z,2.40
2019-04-26T10:10:24.065Z,2.60
2019-04-26T10:13:02.792Z,2.10
2019-04-26T10:15:39.250Z,2.20
2019-04-26T10:18:08.462Z,3.60
2019-04-26T10:20:37.535Z,2.87
2019-04-26T10:23:08.214Z,2.53
2019-04-26T10:25:37.374Z,2.00
2019-04-26T10:28:06.510Z,2.30
2019-04-26T10:30:38.389Z,2.33
2019-04-26T10:33:06.469Z,2.37
2019-04-26T10:35:35.586Z,2.47
2019-04-26T10:38:04.756Z,2.47
2019-04-26T10:40:35.646Z,2.37
2019-04-26T10:43:06.485Z,2.60
2019-04-26T10:45:35.586Z,2.20
2019-04-26T10:48:04.805Z,2.00
2019-04-26T10:50:34.452Z,1.80
2019-04-26T10:53:16.794Z,1.40
2019-04-26T10:56:03.882Z,1.50
2019-04-26T10:58:55.318Z,1.90
2019-04-26T11:01:24.493Z,1.63
2019-04-26T11:03:53.600Z,1.63
2019-04-26T11:06:24.093Z,1.60
2019-04-26T11:08:56.780Z,1.37
2019-04-26T11:11:25.859Z,1.40
2019-04-26T11:13:57.425Z,1.60
2019-04-26T11:16:27.444Z,1.37
2019-04-26T11:18:57.253Z,1.10
2019-04-26T11:21:28.176Z,1.10
2019-04-26T11:23:57.222Z,1.40
2019-04-26T11:26:36.225Z,1.30
2019-04-26T11:29:08.252Z,1.20
2019-04-26T11:31:37.444Z,1.67
2019-04-26T11:34:07.865Z,1.00
2019-04-26T11:36:37.556Z,0.97
2019-04-26T11:39:11.323Z,1.00
2019-04-26T11:41:40.528Z,1.00
2019-04-26T11:44:10.137Z,1.03
2019-04-26T11:46:44.804Z,1.00
2019-04-26T11:49:10.559Z,1.13
2019-04-26T11:51:40.040Z,1.07
2019-04-26T11:54:09.230Z,0.57
2019-04-26T11:56:38.873Z,0.60
2019-04-26T11:59:08.126Z,0.50
2019-04-26T12:01:40.542Z,0.80
2019-04-26T12:04:33.520Z,0.80
2019-04-26T12:07:15.033Z,0.67
2019-04-26T12:09:46.150Z,0.80
2019-04-26T12:12:21.907Z,0.80
2019-04-26T12:14:52.591Z,0.70
2019-04-26T12:17:26.832Z,0.70
2019-04-26T12:19:55.694Z,0.80
2019-04-26T12:22:25.764Z,0.40
2019-04-26T12:24:57.783Z,0.47
2019-04-26T12:27:30.653Z,0.60
2019-04-26T12:29:57.811Z,0.80
2019-04-26T12:32:27.030Z,0.77
2019-04-26T12:34:56.230Z,0.83
2019-04-26T12:37:25.751Z,0.90
2019-04-26T12:39:54.882Z,0.90
2019-04-26T12:42:29.880Z,1.43
2019-04-26T12:45:18.208Z,1.10
2019-04-26T12:47:56.893Z,0.83
2019-04-26T12:50:29.438Z,0.73
2019-04-26T12:52:59.815Z,0.50
2019-04-26T12:55:29.085Z,0.53
2019-04-26T12:58:00.414Z,0.70
2019-04-26T13:00:37.435Z,0.60
2019-04-26T13:03:19.444Z,0.73
2019-04-26T13:05:41.228Z,1.00
2019-04-26T13:08:19.037Z,0.60
2019-04-26T13:11:15.093Z,0.50
2019-04-26T13:13:47.677Z,0.80
2019-04-26T13:16:37.641Z,1.00
2019-04-26T13:19:06.773Z,0.87
2019-04-26T13:21:38.606Z,0.80
2019-04-26T13:24:07.722Z,0.90
2019-04-26T13:26:36.862Z,0.80
2019-04-26T13:29:05.986Z,0.80
2019-04-26T13:31:35.098Z,0.80
2019-04-26T13:34:04.593Z,1.10
2019-04-26T13:36:33.857Z,1.47
2019-04-26T13:39:08.631Z,1.67
2019-04-26T13:41:38.774Z,1.90
2019-04-26T13:44:11.667Z,1.63
2019-04-26T13:47:03.795Z,1.13
2019-04-26T13:49:38.207Z,1.20
2019-04-26T13:52:13.295Z,1.47
2019-04-26T13:54:42.343Z,0.90
2019-04-26T13:57:12.953Z,0.70
2019-04-26T13:59:42.285Z,1.80
2019-04-26T14:02:14.370Z,1.20
2019-04-26T14:04:43.488Z,0.70
2019-04-26T14:07:12.570Z,0.70
2019-04-26T14:09:42.939Z,1.80
2019-04-26T14:12:18.770Z,0.70
2019-04-26T14:14:43.026Z,0.77
2019-04-26T14:17:12.209Z,0.60
2019-04-26T14:19:41.322Z,1.20
2019-04-26T14:22:10.797Z,1.00
2019-04-26T14:24:53.065Z,0.80
2019-04-26T14:27:27.614Z,0.63
2019-04-26T14:29:56.975Z,1.80
2019-04-26T14:32:26.201Z,1.00
2019-04-26T14:34:55.395Z,0.80
2019-04-26T14:37:27.740Z,0.67
2019-04-26T14:40:16.750Z,0.67
2019-04-26T14:42:42.435Z,1.10
2019-04-26T14:45:08.494Z,1.20
2019-04-26T14:47:47.524Z,1.40
2019-04-26T14:50:17.263Z,0.57
2019-04-26T14:52:46.345Z,0.80
2019-04-26T14:55:21.305Z,0.87
2019-04-26T14:57:51.295Z,1.20
2019-04-26T15:00:25.019Z,0.63
2019-04-26T15:03:20.962Z,0.83
2019-04-26T15:05:59.301Z,0.90
2019-04-26T15:08:28.522Z,1.10
2019-04-26T15:11:01.050Z,1.30
2019-04-26T15:13:28.454Z,0.83
2019-04-26T15:15:57.686Z,1.00
2019-04-26T15:18:29.298Z,1.00
2019-04-26T15:20:58.642Z,1.10
2019-04-26T15:23:27.809Z,0.90
2019-04-26T15:25:58.644Z,1.20
2019-04-26T15:28:27.981Z,0.90
2019-04-26T15:30:59.475Z,1.70
2019-04-26T15:33:32.375Z,1.60
2019-04-26T15:36:02.245Z,1.43
2019-04-26T15:38:40.988Z,1.20
2019-04-26T15:41:33.230Z,1.07
2019-04-26T15:44:28.081Z,0.90
2019-04-26T15:46:59.093Z,1.40
2019-04-26T15:49:53.216Z,1.47
2019-04-26T15:52:22.331Z,1.23
2019-04-26T15:54:52.872Z,1.37
2019-04-26T15:57:24.391Z,0.80
2019-04-26T15:59:59.306Z,1.10
2019-04-26T16:02:29.612Z,1.20
2019-04-26T16:04:58.713Z,1.60
2019-04-26T16:07:29.144Z,1.40
2019-04-26T16:09:58.403Z,1.00
2019-04-26T16:12:27.588Z,1.33
2019-04-26T16:14:56.695Z,1.10
2019-04-26T16:17:29.385Z,1.27
2019-04-26T16:20:00.056Z,1.47
2019-04-26T16:22:33.139Z,1.57
2019-04-26T16:25:05.233Z,1.17
2019-04-26T16:27:34.585Z,1.00
2019-04-26T16:30:23.084Z,0.93
2019-04-26T16:33:12.979Z,1.30
2019-04-26T16:35:42.698Z,1.30
2019-04-26T16:38:29.878Z,0.90
2019-04-26T16:41:03.347Z,1.37
2019-04-26T16:43:40.220Z,1.53
2019-04-26T16:46:14.741Z,1.40
2019-04-26T16:48:39.509Z,1.87
2019-04-26T16:51:08.966Z,1.47
2019-04-26T16:54:02.143Z,1.93
2019-04-26T16:56:09.521Z,1.70
2019-04-26T16:58:45.008Z,1.30
2019-04-26T17:01:14.684Z,1.23
2019-04-26T17:03:45.233Z,1.30
2019-04-26T17:06:14.621Z,1.20
2019-04-26T17:08:49.928Z,1.40
2019-04-26T17:11:18.266Z,1.50
2019-04-26T17:13:50.573Z,2.00
2019-04-26T17:16:18.561Z,1.70
2019-04-26T17:18:47.704Z,1.30
2019-04-26T17:21:23.842Z,1.60
2019-04-26T17:24:17.418Z,1.30
2019-04-26T17:26:53.685Z,1.60
2019-04-26T17:29:22.881Z,1.50
2019-04-26T17:31:52.493Z,1.50
2019-04-26T17:34:22.501Z,1.43
2019-04-26T17:36:52.469Z,1.17
2019-04-26T17:39:22.599Z,1.67
2019-04-26T17:41:54.202Z,1.60
2019-04-26T17:44:26.428Z,1.60
2019-04-26T17:46:57.051Z,1.50
2019-04-26T17:49:27.427Z,1.20
2019-04-26T17:51:58.165Z,1.50
2019-04-26T17:54:44.151Z,1.60
2019-04-26T17:56:57.653Z,1.80
2019-04-26T17:59:33.646Z,1.90
2019-04-26T18:02:01.133Z,1.77
2019-04-26T18:04:36.649Z,1.80
2019-04-26T18:07:33.924Z,1.47
2019-04-26T18:09:44.011Z,1.83
2019-04-26T18:12:09.905Z,1.93
2019-04-26T18:14:39.242Z,1.90
2019-04-26T18:17:20.732Z,1.90
2019-04-26T18:20:00.596Z,1.80
2019-04-26T18:22:36.366Z,1.80
2019-04-26T18:25:11.256Z,2.00
2019-04-26T18:27:38.715Z,2.13
2019-04-26T18:30:13.995Z,1.90
2019-04-26T18:32:47.679Z,2.20
2019-04-26T18:35:16.782Z,2.10
2019-04-26T18:37:45.486Z,1.80
2019-04-26T18:40:14.614Z,2.00
2019-04-26T18:42:43.876Z,2.00
2019-04-26T18:45:13.934Z,1.50
2019-04-26T18:47:43.860Z,2.10
2019-04-26T18:50:14.482Z,1.97
2019-04-26T18:52:59.835Z,2.17
2019-04-26T18:55:30.367Z,2.07
2019-04-26T18:58:03.637Z,2.20
2019-04-26T19:00:37.559Z,1.93
2019-04-26T19:03:07.185Z,1.70
2019-04-26T19:05:36.542Z,1.80
2019-04-26T19:08:07.577Z,1.80
2019-04-26T19:10:58.015Z,1.73
2019-04-26T19:13:51.559Z,1.43
2019-04-26T19:16:42.032Z,1.67
2019-04-26T19:19:25.359Z,1.60
2019-04-26T19:21:56.582Z,1.50
2019-04-26T19:24:25.795Z,1.50
2019-04-26T19:26:55.204Z,1.90
2019-04-26T19:29:32.852Z,2.17
2019-04-26T19:31:56.562Z,2.10
2019-04-26T19:34:30.207Z,1.70
2019-04-26T19:36:59.838Z,1.50
2019-04-26T19:39:32.239Z,1.40
2019-04-26T19:41:59.382Z,1.70
2019-04-26T19:44:28.537Z,1.50
2019-04-26T19:47:25.786Z,1.20
2019-04-26T19:50:16.772Z,1.37
2019-04-26T19:52:52.775Z,1.40
2019-04-26T19:55:48.478Z,1.50
2019-04-26T19:58:22.738Z,1.73
2019-04-26T20:00:52.459Z,1.50
2019-04-26T20:03:21.992Z,1.80
2019-04-26T20:05:52.962Z,1.50
2019-04-26T20:08:23.503Z,1.13
2019-04-26T20:10:52.934Z,1.60
2019-04-26T20:13:22.141Z,1.33
2019-04-26T20:15:53.050Z,1.40
2019-04-26T20:18:22.286Z,1.27
2019-04-26T20:20:52.104Z,2.63
2019-04-26T20:23:22.804Z,2.00
2019-04-26T20:25:53.041Z,1.80
2019-04-26T20:28:22.958Z,1.50
2019-04-26T20:31:07.095Z,1.63
2019-04-26T20:33:31.173Z,1.50
2019-04-26T20:36:01.920Z,1.30
2019-04-26T20:38:35.748Z,1.43
2019-04-26T20:41:02.763Z,1.60
2019-04-26T20:43:32.175Z,1.50
2019-04-26T20:46:12.385Z,1.53
2019-04-26T20:48:33.266Z,1.90
2019-04-26T20:51:06.484Z,1.87
2019-04-26T20:53:39.961Z,1.47
2019-04-26T20:56:09.842Z,1.70
2019-04-26T20:58:37.559Z,1.57
2019-04-26T21:01:10.925Z,1.70
2019-04-26T21:03:42.275Z,1.50
2019-04-26T21:06:11.338Z,1.70
2019-04-26T21:08:42.196Z,1.40
2019-04-26T21:11:13.586Z,1.40
2019-04-26T21:13:42.240Z,1.17
2019-04-26T21:16:15.185Z,1.33
2019-04-26T21:18:44.247Z,1.30
2019-04-26T21:21:15.781Z,1.63
2019-04-26T21:23:45.444Z,1.97
2019-04-26T21:26:24.294Z,1.50
2019-04-26T21:29:15.494Z,1.33
2019-04-26T21:32:04.391Z,1.10
2019-04-26T21:34:35.432Z,1.27
2019-04-26T21:37:23.666Z,1.30
2019-04-26T21:40:23.380Z,1.20
2019-04-26T21:42:49.162Z,1.50
2019-04-26T21:45:21.605Z,1.40
2019-04-26T21:47:49.411Z,1.70
2019-04-26T21:50:20.189Z,1.60
2019-04-26T21:52:49.357Z,1.80
2019-04-26T21:55:18.591Z,1.70
2019-04-26T21:57:47.753Z,1.50
2019-04-26T22:00:36.168Z,1.43
2019-04-26T22:03:07.935Z,1.43
2019-04-26T22:05:36.343Z,1.67
2019-04-26T22:08:05.539Z,1.50
2019-04-26T22:10:45.948Z,1.50
2019-04-26T22:13:24.467Z,1.20
2019-04-26T22:15:59.764Z,1.77
2019-04-26T22:18:56.513Z,1.73
2019-04-26T22:21:31.985Z,2.00
2019-04-26T22:24:06.297Z,1.70
2019-04-26T22:26:38.037Z,1.80
2019-04-26T22:29:08.177Z,1.40
2019-04-26T22:31:37.978Z,1.80
2019-04-26T22:34:08.931Z,1.50
2019-04-26T22:36:38.248Z,1.50
2019-04-26T22:39:15.944Z,2.23
2019-04-26T22:41:45.166Z,2.03
2019-04-26T22:44:24.872Z,2.00
2019-04-26T22:47:14.033Z,1.90
2019-04-26T22:49:45.147Z,2.27
2019-04-26T22:52:16.491Z,1.90
2019-04-26T22:54:46.776Z,2.30
2019-04-26T22:57:16.596Z,1.90
2019-04-26T22:59:50.243Z,1.80
2019-04-26T23:02:18.435Z,2.00
2019-04-26T23:04:47.872Z,2.20
2019-04-26T23:07:22.395Z,1.77
2019-04-26T23:09:51.855Z,1.73
2019-04-26T23:12:30.661Z,1.83
2019-04-26T23:15:30.027Z,1.70
2019-04-26T23:18:15.787Z,2.00
2019-04-26T23:21:07.806Z,3.03
2019-04-26T23:23:37.147Z,5.90
2019-04-26T23:26:07.801Z,4.40
2019-04-26T23:28:37.113Z,3.17
2019-04-26T23:31:08.305Z,2.80
2019-04-26T23:33:37.129Z,2.80
2019-04-26T23:36:06.226Z,3.70
2019-04-26T23:38:37.342Z,2.70
2019-04-26T23:41:07.384Z,2.10
2019-04-26T23:43:36.762Z,2.57
2019-04-26T23:46:06.015Z,2.10
2019-04-26T23:48:35.265Z,2.03
2019-04-26T23:51:08.247Z,1.70
2019-04-26T23:53:35.931Z,2.33
2019-04-26T23:56:05.179Z,1.83
2019-04-26T23:58:34.397Z,2.23
